Time;durP1;ratioP1;P1;durP2;ratioP2;P2;SDS_P1;SDS_P2;PMS_P1;PMS_P2;Temp;Humidity;BMP_temperature;BMP_pressure;BME280_temperature;BME280_humidity;BME280_pressure;Samples;Min_cycle;Max_cycle;Signal;HPM_P1;HPM_P2
2021/12/04 00:00:59;;;;;;;5.15;1.83;;;-0.30;91.50;;;;;;5018936;28;20026;-73
2021/12/04 00:03:22;;;;;;;5.95;2.97;;;-0.40;91.50;;;;;;5003380;28;20056;-73
2021/12/04 00:05:54;;;;;;;5.13;2.87;;;-0.40;92.10;;;;;;5021351;28;20542;-73
2021/12/04 00:08:22;;;;;;;5.13;3.05;;;-0.40;92.40;;;;;;5008860;28;20022;-73
2021/12/04 00:10:50;;;;;;;4.80;2.60;;;-0.40;92.50;;;;;;5004118;28;20723;-73
2021/12/04 00:13:19;;;;;;;3.20;2.10;;;-0.50;92.40;;;;;;5007552;28;20048;-73
2021/12/04 00:15:44;;;;;;;3.92;2.40;;;-0.50;92.20;;;;;;5002533;28;20021;-73
2021/12/04 00:18:11;;;;;;;3.90;2.63;;;-0.50;92.00;;;;;;5008634;28;20022;-73
2021/12/04 00:20:38;;;;;;;3.85;2.00;;;-0.50;91.90;;;;;;5003057;28;20029;-73
2021/12/04 00:23:04;;;;;;;3.47;1.95;;;-0.50;91.90;;;;;;5021310;28;20030;-72
2021/12/04 00:25:32;;;;;;;7.20;2.27;;;-0.50;91.80;;;;;;5004540;28;20032;-73
2021/12/04 00:27:57;;;;;;;2.38;2.00;;;-0.60;91.50;;;;;;5007416;28;20045;-73
2021/12/04 00:30:26;;;;;;;3.53;2.33;;;-0.60;91.40;;;;;;5009406;28;20053;-73
2021/12/04 00:33:00;;;;;;;3.85;2.42;;;-0.60;91.50;;;;;;4998928;28;20105;-73
2021/12/04 00:51:20;;;;;;;2.15;1.70;;;-0.70;91.80;;;;;;5007031;28;20095;-73
2021/12/04 00:53:47;;;;;;;2.53;2.05;;;-0.70;91.80;;;;;;4998455;28;20049;-73
2021/12/04 00:56:14;;;;;;;4.60;2.50;;;-0.70;91.80;;;;;;5004419;28;20037;-72
2021/12/04 00:58:40;;;;;;;5.72;2.50;;;-0.70;91.90;;;;;;5014592;28;20750;-72
2021/12/04 01:01:06;;;;;;;3.90;2.67;;;-0.70;91.70;;;;;;5008121;28;20072;-73
2021/12/04 01:03:36;;;;;;;3.15;2.67;;;-0.70;91.30;;;;;;5001079;28;20079;-73
2021/12/04 01:06:06;;;;;;;5.30;2.85;;;-0.70;91.20;;;;;;4998577;28;20040;-72
2021/12/04 01:08:32;;;;;;;6.18;3.03;;;-0.70;91.20;;;;;;5009151;28;20033;-73
2021/12/04 01:10:59;;;;;;;5.57;3.40;;;-0.70;91.40;;;;;;4998939;28;20029;-73
2021/12/04 01:13:24;;;;;;;8.50;3.70;;;-0.70;91.50;;;;;;5007107;28;20032;-73
2021/12/04 01:15:50;;;;;;;5.57;3.23;;;-0.70;91.50;;;;;;4998322;28;20454;-73
2021/12/04 01:18:16;;;;;;;5.63;4.07;;;-0.70;91.60;;;;;;5005328;28;20121;-73
2021/12/04 01:20:42;;;;;;;5.77;3.63;;;-0.70;91.80;;;;;;4999915;28;20018;-73
2021/12/04 01:23:08;;;;;;;6.68;3.83;;;-0.60;92.00;;;;;;5006295;28;20018;-73
2021/12/04 01:25:37;;;;;;;7.10;3.70;;;-0.60;91.90;;;;;;5003744;28;20025;-74
2021/12/04 01:28:04;;;;;;;7.57;4.40;;;-0.60;92.10;;;;;;5006346;28;20021;-73
2021/12/04 01:30:31;;;;;;;6.95;3.70;;;-0.60;92.10;;;;;;5003509;28;20464;-73
2021/12/04 01:33:00;;;;;;;6.97;4.13;;;-0.70;92.00;;;;;;5010813;28;20049;-73
2021/12/04 01:35:28;;;;;;;5.57;3.17;;;-0.70;92.30;;;;;;5007072;28;20112;-73
2021/12/04 01:37:55;;;;;;;6.82;3.63;;;-0.80;92.50;;;;;;5005504;28;20136;-73
2021/12/04 01:40:23;;;;;;;8.48;4.95;;;-0.80;92.60;;;;;;5007751;28;20022;-72
2021/12/04 01:42:50;;;;;;;10.02;4.82;;;-0.80;92.80;;;;;;4998670;28;20615;-73
2021/12/04 01:45:18;;;;;;;7.60;4.40;;;-0.90;92.90;;;;;;5009272;28;20935;-73
2021/12/04 01:47:46;;;;;;;8.32;4.80;;;-0.90;93.00;;;;;;5021903;28;20032;-73
2021/12/04 01:50:13;;;;;;;6.63;3.95;;;-0.90;93.00;;;;;;5013592;28;20510;-72
2021/12/04 01:52:40;;;;;;;;;;;-0.80;91.60;;;;;;5003865;28;20018;-73
2021/12/04 01:55:08;;;;;;;6.10;3.95;;;-0.80;92.50;;;;;;5009538;28;20521;-73
2021/12/04 01:57:34;;;;;;;8.13;3.72;;;-0.80;92.50;;;;;;5014204;28;20030;-73
2021/12/04 02:00:00;;;;;;;5.97;3.63;;;-0.90;92.30;;;;;;5014590;28;20045;-73
2021/12/04 02:02:26;;;;;;;8.65;4.30;;;-0.90;92.50;;;;;;5029553;28;20039;-73
2021/12/04 02:04:53;;;;;;;7.30;3.93;;;-0.90;92.50;;;;;;5003714;28;20104;-73
2021/12/04 02:07:22;;;;;;;6.50;4.43;;;-0.90;92.50;;;;;;5011428;28;20113;-73
2021/12/04 02:09:48;;;;;;;5.65;3.55;;;-1.00;92.60;;;;;;5001075;28;20029;-73
2021/12/04 02:12:16;;;;;;;8.57;3.67;;;-1.00;92.60;;;;;;5010942;28;20028;-72
2021/12/04 02:14:42;;;;;;;6.93;3.90;;;-1.00;92.90;;;;;;5005732;28;20022;-73
2021/12/04 02:17:09;;;;;;;5.72;3.95;;;-1.00;92.50;;;;;;5005703;28;20133;-73
2021/12/04 02:19:35;;;;;;;10.55;3.55;;;-1.00;92.30;;;;;;5024864;28;20099;-74
2021/12/04 02:22:00;;;;;;;8.35;4.35;;;-1.00;92.40;;;;;;5014821;28;20021;-73
2021/12/04 02:24:28;;;;;;;6.07;3.77;;;-1.00;92.30;;;;;;5006917;28;20057;-73
2021/12/04 02:26:54;;;;;;;8.25;4.10;;;-1.10;91.80;;;;;;5010559;28;20067;-73
2021/12/04 02:29:25;;;;;;;8.03;4.07;;;-1.10;91.60;;;;;;5014247;28;20032;-73
2021/12/04 02:31:58;;;;;;;9.00;4.63;;;-1.00;91.60;;;;;;5002149;28;20080;-73
2021/12/04 02:34:27;;;;;;;7.80;3.65;;;-1.00;91.80;;;;;;5012017;28;20021;-73
2021/12/04 02:36:54;;;;;;;6.45;3.85;;;-1.00;92.10;;;;;;5008341;28;20018;-73
2021/12/04 02:39:31;;;;;;;;;;;-1.00;92.20;;;;;;5018320;28;20036;-73
2021/12/04 02:42:17;;;;;;;8.02;4.30;;;-1.00;92.20;;;;;;5013850;28;19906;-73
2021/12/04 02:44:45;;;;;;;8.00;3.67;;;-1.00;92.00;;;;;;5023933;28;20028;-73
2021/12/04 02:47:12;;;;;;;5.78;3.33;;;-1.10;91.90;;;;;;5035336;28;20025;-73
2021/12/04 02:49:37;;;;;;;7.03;3.90;;;-1.10;92.10;;;;;;5013258;28;20061;-73
2021/12/04 02:52:05;;;;;;;8.77;4.40;;;-1.20;92.30;;;;;;5018646;28;20056;-73
2021/12/04 02:54:32;;;;;;;6.07;3.35;;;-1.20;92.30;;;;;;5010483;28;20101;-73
2021/12/04 02:57:00;;;;;;;5.57;3.47;;;-1.20;92.40;;;;;;5012854;28;20045;-73
2021/12/04 02:59:27;;;;;;;5.30;3.20;;;-1.20;92.30;;;;;;5008989;28;20101;-73
2021/12/04 03:01:56;;;;;;;;;;;-1.10;92.40;;;;;;5012163;28;20075;-73
2021/12/04 03:04:24;;;;;;;4.55;3.30;;;-1.10;92.30;;;;;;5023301;28;20470;-73
2021/12/04 03:06:51;;;;;;;6.80;3.55;;;-1.10;92.30;;;;;;5008639;28;20029;-73
2021/12/04 03:09:17;;;;;;;;;;;-1.00;92.00;;;;;;5030879;28;20032;-73
2021/12/04 03:11:44;;;;;;;6.60;3.00;;;-1.00;91.90;;;;;;5008258;28;19913;-73
2021/12/04 03:14:09;;;;;;;;;;;-1.00;91.70;;;;;;5008566;28;20025;-73
2021/12/04 03:16:40;;;;;;;4.63;3.05;;;-1.00;91.70;;;;;;5010639;28;20007;-72
2021/12/04 03:19:07;;;;;;;5.15;2.85;;;-1.00;91.60;;;;;;5015096;28;20017;-72
2021/12/04 03:21:37;;;;;;;;;;;-1.00;91.50;;;;;;5011901;28;20048;-73
2021/12/04 03:24:07;;;;;;;6.60;3.65;;;-0.90;91.30;;;;;;5025478;28;19956;-73
2021/12/04 03:26:36;;;;;;;7.45;3.00;;;-1.00;91.50;;;;;;5010075;28;20753;-73
2021/12/04 03:29:08;;;;;;;5.10;3.05;;;-1.00;91.50;;;;;;5015815;28;20023;-73
2021/12/04 03:42:27;;;;;;;5.35;3.15;;;-0.90;90.60;;;;;;5012842;28;20459;-73
2021/12/04 03:44:53;;;;;;;4.13;2.50;;;-1.00;90.50;;;;;;5008422;28;20018;-73
2021/12/04 03:47:25;;;;;;;5.00;2.77;;;-1.00;90.70;;;;;;5010581;28;20049;-73
2021/12/04 03:49:52;;;;;;;4.57;2.80;;;-1.00;90.60;;;;;;5006329;28;20140;-73
2021/12/04 03:52:20;;;;;;;4.70;2.75;;;-0.90;90.50;;;;;;5012126;28;20049;-73
2021/12/04 03:54:46;;;;;;;4.15;2.75;;;-0.90;90.40;;;;;;5005533;28;20068;-73
2021/12/04 03:57:12;;;;;;;6.40;3.30;;;-0.90;90.40;;;;;;5008241;28;20049;-73
2021/12/04 03:59:46;;;;;;;4.05;2.47;;;-0.90;90.20;;;;;;5004361;28;20024;-73
2021/12/04 04:02:17;;;;;;;4.38;3.10;;;-0.90;90.30;;;;;;5019441;28;20112;-73
2021/12/04 04:04:43;;;;;;;7.60;3.10;;;-1.00;90.50;;;;;;5005579;28;20041;-73
2021/12/04 04:07:13;;;;;;;4.70;3.00;;;-1.00;90.40;;;;;;5005330;28;20029;-73
2021/12/04 04:09:42;;;;;;;5.22;3.22;;;-1.00;90.30;;;;;;5004164;28;20256;-73
2021/12/04 04:12:11;;;;;;;4.80;2.95;;;-1.10;90.30;;;;;;5019354;28;20028;-72
2021/12/04 04:14:37;;;;;;;4.35;2.75;;;-1.20;90.10;;;;;;5007564;28;20028;-73
2021/12/04 04:17:03;;;;;;;4.20;2.97;;;-1.20;90.40;;;;;;5013398;28;20026;-73
2021/12/04 04:19:35;;;;;;;4.82;2.63;;;-1.20;90.40;;;;;;5012989;28;20272;-73
2021/12/04 04:22:00;;;;;;;5.03;2.70;;;-1.20;90.50;;;;;;5006205;28;20025;-72
2021/12/04 04:24:28;;;;;;;4.57;3.00;;;-1.20;90.70;;;;;;5019431;28;20100;-73
2021/12/04 04:27:02;;;;;;;6.63;3.30;;;-1.20;90.40;;;;;;5007575;28;20028;-72
2021/12/04 04:29:28;;;;;;;5.30;3.13;;;-1.20;90.50;;;;;;5023508;28;20031;-73
2021/12/04 04:31:55;;;;;;;4.78;2.97;;;-1.20;90.30;;;;;;5005309;28;20028;-73
2021/12/04 04:34:32;;;;;;;3.75;2.78;;;-1.20;90.50;;;;;;5007493;28;20029;-73
2021/12/04 04:59:18;;;;;;;4.18;2.80;;;-1.10;90.70;;;;;;5000114;28;20633;-73
2021/12/04 05:15:24;;;;;;;4.40;3.00;;;-0.80;90.40;;;;;;5008383;28;20340;-73
2021/12/04 05:18:05;;;;;;;6.13;2.45;;;-0.80;90.90;;;;;;5001382;28;20018;-73
2021/12/04 05:20:36;;;;;;;4.70;3.13;;;-0.70;90.60;;;;;;5016891;28;20026;-73
2021/12/04 05:23:10;;;;;;;5.85;3.00;;;-0.70;90.60;;;;;;5008623;28;20522;-73
2021/12/04 05:25:36;;;;;;;5.55;3.03;;;-0.70;90.60;;;;;;5007487;28;20030;-74
2021/12/04 05:28:07;;;;;;;6.37;3.17;;;-0.70;90.60;;;;;;5005524;28;20075;-72
2021/12/04 05:30:37;;;;;;;4.95;2.55;;;-0.70;90.70;;;;;;5006942;28;20418;-73
2021/12/04 05:33:06;;;;;;;5.47;2.88;;;-0.70;90.80;;;;;;5004292;28;20026;-73
2021/12/04 05:35:35;;;;;;;5.00;2.97;;;-0.60;91.00;;;;;;5013253;28;20032;-72
2021/12/04 05:38:06;;;;;;;4.63;2.60;;;-0.50;91.10;;;;;;5003443;28;20029;-73
2021/12/04 05:40:34;;;;;;;4.15;2.60;;;-0.50;91.10;;;;;;5006145;28;20017;-73
2021/12/04 05:43:02;;;;;;;5.25;2.80;;;-0.50;91.20;;;;;;5006247;28;20034;-73
2021/12/04 05:45:31;;;;;;;7.50;3.10;;;-0.40;91.30;;;;;;5001643;28;20032;-73
2021/12/04 05:48:08;;;;;;;5.38;3.03;;;-0.40;91.40;;;;;;4999911;28;20029;-73
2021/12/04 05:53:16;;;;;;;5.07;3.00;;;-0.40;91.70;;;;;;5002283;28;19979;-73
2021/12/04 05:55:53;;;;;;;5.30;2.97;;;-0.30;91.50;;;;;;4998408;28;20029;-73
2021/12/04 05:58:31;;;;;;;4.53;2.78;;;-0.30;91.50;;;;;;5002902;28;20014;-73
2021/12/04 06:01:03;;;;;;;5.35;3.13;;;-0.30;91.50;;;;;;4999326;28;20037;-73
2021/12/04 06:03:30;;;;;;;4.75;2.95;;;-0.30;91.60;;;;;;4995808;28;20388;-72
2021/12/04 06:05:56;;;;;;;4.57;3.00;;;-0.30;91.60;;;;;;4999687;28;20100;-73
2021/12/04 06:08:22;;;;;;;6.32;3.30;;;-0.30;91.60;;;;;;4997929;28;20025;-73
2021/12/04 06:10:50;;;;;;;6.03;2.63;;;-0.30;91.50;;;;;;5002405;28;20095;-73
2021/12/04 06:13:16;;;;;;;5.18;2.92;;;-0.30;91.50;;;;;;4998395;28;20190;-73
2021/12/04 06:15:44;;;;;;;4.28;2.90;;;-0.30;91.60;;;;;;5003967;28;20040;-73
2021/12/04 06:18:11;;;;;;;4.57;2.88;;;-0.20;91.80;;;;;;4999467;28;20022;-73
2021/12/04 06:23:23;;;;;;;5.40;2.80;;;-0.10;91.80;;;;;;4997824;28;20044;-73
2021/12/04 06:25:49;;;;;;;;;;;0.00;91.50;;;;;;5003678;28;20017;-73
2021/12/04 06:28:16;;;;;;;5.28;3.30;;;0.00;91.20;;;;;;5014762;28;19952;-73
2021/12/04 06:30:43;;;;;;;6.70;3.40;;;0.00;91.00;;;;;;5005352;28;20010;-74
2021/12/04 06:33:12;;;;;;;8.07;3.50;;;0.00;91.00;;;;;;4997518;28;20048;-73
2021/12/04 06:35:41;;;;;;;5.88;3.30;;;0.00;91.00;;;;;;4996543;28;20052;-73
2021/12/04 06:38:11;;;;;;;5.57;3.60;;;0.20;91.10;;;;;;4996166;28;20069;-74
2021/12/04 06:40:38;;;;;;;4.28;3.20;;;0.40;90.50;;;;;;5001258;28;20108;-74
2021/12/04 06:43:05;;;;;;;5.65;3.30;;;0.60;90.30;;;;;;5000814;28;20021;-73
2021/12/04 06:45:34;;;;;;;5.88;3.45;;;0.90;89.70;;;;;;4994457;28;20021;-73
2021/12/04 06:48:06;;;;;;;5.63;3.25;;;1.00;89.30;;;;;;5004318;28;20037;-73
2021/12/04 06:50:48;;;;;;;5.68;3.28;;;1.20;88.60;;;;;;5000355;28;20029;-73
2021/12/04 06:53:32;;;;;;;4.60;3.10;;;1.20;87.90;;;;;;5001522;28;20028;-74
2021/12/04 06:56:00;;;;;;;6.55;3.25;;;1.20;88.50;;;;;;4999061;28;20026;-73
2021/12/04 06:58:29;;;;;;;5.47;3.25;;;1.00;88.80;;;;;;5014707;28;20053;-73
2021/12/04 07:00:55;;;;;;;4.95;3.05;;;1.00;89.30;;;;;;5001700;28;20014;-73
2021/12/04 07:03:23;;;;;;;6.70;3.40;;;0.90;89.70;;;;;;4996394;28;20391;-73
2021/12/04 07:05:51;;;;;;;4.75;2.97;;;0.80;89.80;;;;;;5001768;28;20123;-74
2021/12/04 07:08:18;;;;;;;6.03;2.78;;;0.80;90.10;;;;;;4999784;28;20053;-73
2021/12/04 07:10:44;;;;;;;6.88;3.40;;;0.80;90.00;;;;;;5004852;28;20025;-74
2021/12/04 07:13:12;;;;;;;;;;;0.80;90.20;;;;;;5012709;28;20429;-73
2021/12/04 07:15:44;;;;;;;8.45;3.70;;;0.80;90.50;;;;;;5008377;28;20003;-73
2021/12/04 07:18:10;;;;;;;4.88;3.08;;;0.80;90.50;;;;;;4995894;28;20053;-73
2021/12/04 07:20:38;;;;;;;5.93;3.63;;;0.80;90.60;;;;;;5011205;28;20045;-73
2021/12/04 07:23:06;;;;;;;6.28;3.55;;;0.90;90.60;;;;;;5003819;28;20040;-73
2021/12/04 07:25:33;;;;;;;4.72;3.20;;;1.00;90.50;;;;;;5002173;28;20020;-72
2021/12/04 07:27:59;;;;;;;6.05;3.28;;;1.10;90.40;;;;;;5002764;28;20030;-73
2021/12/04 07:30:25;;;;;;;5.77;3.20;;;1.10;90.50;;;;;;5000047;28;20493;-73
2021/12/04 07:32:52;;;;;;;;;;;1.10;90.50;;;;;;5017951;28;20022;-73
2021/12/04 07:35:18;;;;;;;5.97;3.47;;;1.20;90.60;;;;;;5014280;28;19913;-73
2021/12/04 07:37:47;;;;;;;5.83;3.30;;;1.20;90.80;;;;;;5008816;28;20596;-73
2021/12/04 07:40:13;;;;;;;7.30;3.88;;;1.10;90.80;;;;;;5002123;28;20036;-73
2021/12/04 07:42:41;;;;;;;7.22;4.13;;;1.20;90.90;;;;;;5004320;28;20026;-73
2021/12/04 07:45:08;;;;;;;6.28;3.85;;;1.20;91.00;;;;;;5004177;28;20034;-72
2021/12/04 07:47:34;;;;;;;8.00;4.15;;;1.10;91.30;;;;;;5017996;28;20018;-73
2021/12/04 07:50:01;;;;;;;6.40;3.37;;;1.10;91.50;;;;;;5005800;28;20033;-73
2021/12/04 07:52:30;;;;;;;6.15;3.88;;;1.10;91.90;;;;;;5000231;28;20101;-73
2021/12/04 07:54:56;;;;;;;8.02;3.80;;;1.00;92.30;;;;;;5003504;28;20022;-73
2021/12/04 07:57:21;;;;;;;7.53;4.50;;;1.00;92.30;;;;;;4999700;28;20033;-73
2021/12/04 07:59:47;;;;;;;8.37;3.70;;;1.10;92.30;;;;;;5004354;28;20026;-71
2021/12/04 08:02:13;;;;;;;8.50;4.00;;;1.10;92.50;;;;;;5015045;28;20030;-71
2021/12/04 08:04:39;;;;;;;8.20;3.93;;;1.10;92.30;;;;;;5001795;28;20348;-71
2021/12/04 08:07:06;;;;;;;8.10;4.53;;;1.20;92.20;;;;;;5000007;28;20038;-71
2021/12/04 08:09:32;;;;;;;7.45;4.55;;;1.20;92.50;;;;;;4997348;28;20630;-71
2021/12/04 08:11:58;;;;;;;7.03;4.00;;;1.20;92.60;;;;;;5004305;28;20037;-71
2021/12/04 08:14:23;;;;;;;10.37;4.70;;;1.20;92.70;;;;;;5003602;28;20030;-71
2021/12/04 08:16:49;;;;;;;9.00;4.90;;;1.20;92.80;;;;;;5005640;28;20022;-71
2021/12/04 08:19:15;;;;;;;9.53;4.40;;;1.10;93.00;;;;;;4998552;28;20478;-71
2021/12/04 08:21:41;;;;;;;9.70;5.07;;;1.10;93.10;;;;;;5002839;28;20025;-70
2021/12/04 08:24:07;;;;;;;10.40;4.93;;;1.10;93.30;;;;;;5000791;28;20022;-71
2021/12/04 08:26:38;;;;;;;7.47;4.22;;;1.20;93.20;;;;;;5010579;28;20029;-71
2021/12/04 08:29:04;;;;;;;9.40;4.90;;;1.20;93.20;;;;;;5001193;28;20026;-70
2021/12/04 08:31:30;;;;;;;8.10;4.05;;;1.20;93.10;;;;;;4999692;28;20057;-70
2021/12/04 08:33:56;;;;;;;7.72;4.30;;;1.30;93.20;;;;;;5003928;28;20030;-71
2021/12/04 08:36:22;;;;;;;9.00;4.73;;;1.40;92.90;;;;;;4998194;28;20021;-71
2021/12/04 08:38:48;;;;;;;8.80;4.43;;;1.50;92.50;;;;;;5010315;28;20095;-71
2021/12/04 08:41:15;;;;;;;8.52;4.30;;;1.60;92.40;;;;;;4995268;28;20081;-72
2021/12/04 08:43:41;;;;;;;8.48;4.93;;;1.70;92.20;;;;;;5001378;28;20026;-71
2021/12/04 08:46:07;;;;;;;13.37;5.47;;;1.70;92.10;;;;;;5003521;28;20561;-71
2021/12/04 08:48:34;;;;;;;8.48;4.78;;;1.70;92.00;;;;;;5015905;28;20018;-71
2021/12/04 08:51:01;;;;;;;10.02;4.97;;;1.80;92.10;;;;;;5010758;28;20086;-71
2021/12/04 08:53:27;;;;;;;;;;;1.80;91.90;;;;;;4997196;28;20690;-71
2021/12/04 08:55:55;;;;;;;6.72;4.60;;;1.80;92.10;;;;;;5006015;28;20004;-71
2021/12/04 08:58:21;;;;;;;11.25;4.82;;;1.80;92.30;;;;;;4997658;28;20507;-71
2021/12/04 09:00:51;;;;;;;9.33;4.40;;;1.80;92.00;;;;;;5004880;28;20061;-71
2021/12/04 09:03:24;;;;;;;7.25;4.60;;;1.80;91.90;;;;;;4998381;28;20084;-71
2021/12/04 09:05:51;;;;;;;7.85;4.88;;;1.80;92.10;;;;;;5003177;28;20026;-71
2021/12/04 09:08:20;;;;;;;12.38;5.00;;;1.90;92.30;;;;;;5015323;28;20050;-71
2021/12/04 09:10:47;;;;;;;8.30;4.43;;;1.90;92.10;;;;;;4999893;28;20026;-71
2021/12/04 09:13:14;;;;;;;7.95;4.18;;;1.90;91.50;;;;;;4995505;28;20021;-71
2021/12/04 09:15:41;;;;;;;7.32;4.50;;;2.00;91.50;;;;;;5002825;28;20120;-71
2021/12/04 09:18:07;;;;;;;7.53;3.90;;;2.10;91.60;;;;;;5005973;28;20053;-70
2021/12/04 09:20:33;;;;;;;7.47;4.20;;;2.20;90.90;;;;;;5017495;28;20818;-71
2021/12/04 09:23:02;;;;;;;7.88;4.15;;;2.20;91.10;;;;;;5002679;28;20018;-71
2021/12/04 09:25:31;;;;;;;7.20;4.38;;;2.40;91.00;;;;;;4996962;28;20417;-71
2021/12/04 10:33:43;;;;;;;8.77;4.70;;;3.10;88.30;;;;;;4998332;28;20032;-71
2021/12/04 10:36:11;;;;;;;7.22;4.50;;;3.00;89.20;;;;;;5005304;28;20049;-72
2021/12/04 10:38:44;;;;;;;8.20;4.60;;;2.90;89.20;;;;;;4998170;28;20017;-71
2021/12/04 10:41:15;;;;;;;8.77;4.55;;;3.00;89.50;;;;;;4997960;28;20013;-71
2021/12/04 10:43:41;;;;;;;9.77;4.95;;;3.00;88.50;;;;;;4999476;28;20630;-71
2021/12/04 10:46:15;;;;;;;11.27;4.90;;;3.10;88.60;;;;;;5013948;28;20116;-71
2021/12/04 10:49:00;;;;;;;8.30;4.85;;;3.10;87.90;;;;;;4997660;28;20033;-74
2021/12/04 10:51:32;;;;;;;8.02;4.15;;;3.00;88.40;;;;;;4995475;28;20018;-71
2021/12/04 10:54:13;;;;;;;10.70;4.88;;;3.10;87.80;;;;;;5002389;28;20025;-71
2021/12/04 10:59:31;;;;;;;11.10;4.90;;;3.00;88.40;;;;;;5005022;28;20032;-71
2021/12/04 11:18:45;;;;;;;9.32;4.32;;;3.50;86.80;;;;;;5002946;28;20087;-72
2021/12/04 11:40:39;;;;;;;10.48;3.90;;;3.70;85.80;;;;;;5000566;28;20772;-72
2021/12/04 11:43:15;;;;;;;7.00;4.32;;;3.80;85.50;;;;;;5016531;28;20108;-71
2021/12/04 11:46:01;;;;;;;9.02;4.32;;;3.80;85.30;;;;;;5019335;28;20439;-71
2021/12/04 11:48:37;;;;;;;8.93;4.85;;;3.80;85.50;;;;;;5008113;28;20116;-71
2021/12/04 11:51:24;;;;;;;7.85;4.38;;;3.90;84.70;;;;;;4999253;28;20021;-72
2021/12/04 11:53:53;;;;;;;7.78;4.80;;;3.90;85.20;;;;;;5000944;28;20024;-71
2021/12/04 11:56:23;;;;;;;7.05;4.40;;;3.90;84.70;;;;;;5022305;28;20817;-71
2021/12/04 11:58:50;;;;;;;11.20;5.47;;;3.90;85.00;;;;;;5003401;28;20026;-72
2021/12/04 12:01:30;;;;;;;8.35;4.68;;;3.90;85.20;;;;;;5005108;28;20060;-71
2021/12/04 12:04:00;;;;;;;9.52;5.38;;;3.90;85.40;;;;;;5004005;28;20070;-71
2021/12/04 12:06:32;;;;;;;11.73;6.05;;;4.00;85.60;;;;;;5004273;28;20022;-72
2021/12/04 12:09:24;;;;;;;9.75;4.95;;;4.10;85.10;;;;;;4998863;28;20037;-71
2021/12/04 12:11:56;;;;;;;7.50;4.35;;;4.00;85.50;;;;;;5000218;28;20045;-71
2021/12/04 12:14:39;;;;;;;8.45;5.25;;;3.90;86.30;;;;;;5005110;28;20026;-72
2021/12/04 12:17:06;;;;;;;10.68;5.65;;;3.90;87.90;;;;;;4996934;28;20020;-71
2021/12/04 12:19:40;;;;;;;10.32;5.43;;;3.90;88.10;;;;;;5004446;28;20466;-71
2021/12/04 12:22:13;;;;;;;17.60;8.18;;;3.90;89.30;;;;;;5017544;28;20034;-71
2021/12/04 12:33:13;;;;;;;10.95;5.75;;;4.10;88.00;;;;;;4994645;28;20041;-71
2021/12/04 12:36:04;;;;;;;10.00;4.82;;;4.30;87.50;;;;;;5001942;28;20018;-71
2021/12/04 12:38:44;;;;;;;10.35;5.03;;;4.30;87.60;;;;;;5002034;28;20010;-71
2021/12/04 12:41:40;;;;;;;7.35;4.68;;;4.40;87.10;;;;;;4997865;28;20022;-71
2021/12/04 12:44:22;;;;;;;11.75;5.22;;;4.30;86.70;;;;;;5014153;28;20031;-71
2021/12/04 12:47:02;;;;;;;10.50;4.72;;;4.30;86.30;;;;;;4997622;28;20680;-72
2021/12/04 12:49:42;;;;;;;7.18;4.60;;;4.30;86.00;;;;;;5001238;28;20041;-71
2021/12/04 12:52:14;;;;;;;8.55;4.40;;;4.40;85.40;;;;;;5005402;28;20411;-71
2021/12/04 12:54:44;;;;;;;7.85;4.40;;;4.30;85.90;;;;;;5006980;28;20022;-71
2021/12/04 12:57:39;;;;;;;7.38;4.20;;;4.30;86.20;;;;;;5005246;28;20021;-71
2021/12/04 13:12:02;;;;;;;5.10;2.72;;;4.40;79.30;;;;;;5003678;28;20095;-71
2021/12/04 13:14:49;;;;;;;5.07;2.88;;;4.40;79.90;;;;;;5004254;28;20029;-71
2021/12/04 13:17:24;;;;;;;4.77;2.67;;;4.40;76.30;;;;;;4999624;28;20022;-71
2021/12/04 13:19:53;;;;;;;4.55;2.80;;;4.30;76.60;;;;;;5002600;28;20024;-71
2021/12/04 13:22:22;;;;;;;5.03;2.80;;;4.30;77.30;;;;;;4998260;28;20030;-72
2021/12/04 13:24:50;;;;;;;3.60;2.85;;;4.30;77.80;;;;;;5011860;28;20029;-71
2021/12/04 13:29:52;;;;;;;4.03;2.65;;;4.30;77.30;;;;;;5003318;28;20034;-71
2021/12/04 13:32:32;;;;;;;5.30;3.00;;;4.30;77.50;;;;;;5011550;28;20572;-71
2021/12/04 13:35:09;;;;;;;4.22;2.88;;;4.30;77.70;;;;;;5003449;28;20021;-71
2021/12/04 13:37:35;;;;;;;7.55;3.13;;;4.40;78.00;;;;;;4997234;28;20424;-71
2021/12/04 13:40:06;;;;;;;6.38;3.83;;;4.40;78.10;;;;;;5003574;28;20037;-71
2021/12/04 13:42:34;;;;;;;4.68;3.00;;;4.40;78.20;;;;;;4999463;28;20018;-71
2021/12/04 13:45:04;;;;;;;5.53;2.88;;;4.50;77.90;;;;;;5004181;28;20025;-71
2021/12/04 13:47:30;;;;;;;4.78;2.63;;;4.50;78.00;;;;;;4998406;28;20035;-71
2021/12/04 13:50:00;;;;;;;5.37;3.03;;;4.40;76.70;;;;;;5003930;28;20037;-71
2021/12/04 13:52:31;;;;;;;6.18;3.10;;;4.50;76.70;;;;;;5000522;28;20100;-71
2021/12/04 13:55:03;;;;;;;5.88;3.22;;;4.40;76.80;;;;;;5005778;28;20017;-71
2021/12/04 13:57:29;;;;;;;4.70;3.13;;;4.40;78.80;;;;;;4995362;28;20026;-71
2021/12/04 14:00:03;;;;;;;7.00;3.23;;;4.40;79.60;;;;;;5005430;28;20025;-71
2021/12/04 14:02:31;;;;;;;5.05;3.60;;;4.30;79.60;;;;;;4993609;28;20438;-71
2021/12/04 14:05:05;;;;;;;6.30;3.65;;;4.30;79.70;;;;;;5017180;28;20045;-70
2021/12/04 14:07:31;;;;;;;5.05;3.30;;;4.20;79.90;;;;;;4993511;28;20029;-71
2021/12/04 14:09:57;;;;;;;6.10;3.45;;;4.20;81.20;;;;;;5015093;28;20017;-71
2021/12/04 14:12:24;;;;;;;6.23;4.30;;;4.20;82.00;;;;;;4997397;28;20033;-71
2021/12/04 14:14:49;;;;;;;6.45;4.00;;;4.10;80.80;;;;;;5009076;28;20631;-71
2021/12/04 14:17:17;;;;;;;5.20;3.50;;;4.00;81.90;;;;;;5000378;28;20022;-71
2021/12/04 14:19:44;;;;;;;8.02;4.60;;;4.00;82.70;;;;;;4998495;28;20017;-71
2021/12/04 14:22:16;;;;;;;8.05;4.35;;;3.90;82.70;;;;;;5005939;28;20030;-71
2021/12/04 14:24:48;;;;;;;8.95;4.35;;;3.90;83.60;;;;;;5006170;28;20022;-72
2021/12/04 14:27:24;;;;;;;9.40;4.57;;;3.90;84.40;;;;;;5019012;28;20487;-71
2021/12/04 14:29:54;;;;;;;7.07;4.13;;;3.80;84.30;;;;;;4997708;28;20021;-71
2021/12/04 14:32:28;;;;;;;11.93;5.50;;;3.80;84.30;;;;;;4998040;28;20029;-71
2021/12/04 14:35:00;;;;;;;9.75;4.40;;;3.70;84.40;;;;;;5001098;28;20041;-71
2021/12/04 14:37:27;;;;;;;9.77;4.88;;;3.60;85.00;;;;;;4998665;28;20022;-71
2021/12/04 14:39:54;;;;;;;8.77;4.22;;;3.60;85.60;;;;;;4997170;28;20093;-71
2021/12/04 14:42:21;;;;;;;9.88;5.53;;;3.50;85.10;;;;;;5001185;28;20105;-72
2021/12/04 14:44:51;;;;;;;11.75;5.22;;;3.50;85.90;;;;;;4992592;28;20025;-71
2021/12/04 14:47:19;;;;;;;7.70;4.10;;;3.50;86.40;;;;;;5003147;28;20025;-71
2021/12/04 14:49:45;;;;;;;7.45;4.57;;;3.50;86.50;;;;;;5017097;28;20068;-71
2021/12/04 14:52:37;;;;;;;7.38;4.40;;;3.50;85.50;;;;;;5015101;28;20026;-70
2021/12/04 14:55:19;;;;;;;10.35;5.28;;;3.50;85.20;;;;;;4993191;28;20106;-71
2021/12/04 14:57:45;;;;;;;8.13;4.10;;;3.50;84.80;;;;;;5001946;28;20024;-71
2021/12/04 15:00:16;;;;;;;7.03;4.33;;;3.50;83.90;;;;;;5001793;28;20022;-71
2021/12/04 15:02:59;;;;;;;8.75;4.68;;;3.50;85.40;;;;;;5003430;28;20658;-71
2021/12/04 15:05:33;;;;;;;8.45;4.28;;;3.50;84.30;;;;;;5003979;28;20459;-71
2021/12/04 15:08:09;;;;;;;7.25;4.53;;;3.50;83.70;;;;;;5001446;28;20482;-71
2021/12/04 15:10:36;;;;;;;10.45;4.63;;;3.40;83.90;;;;;;5002631;28;20033;-71
2021/12/04 15:13:05;;;;;;;6.45;3.85;;;3.50;85.20;;;;;;5003143;28;20013;-71
2021/12/04 15:15:35;;;;;;;8.57;4.28;;;3.40;84.10;;;;;;5001433;28;20067;-69
2021/12/04 15:18:10;;;;;;;6.28;3.72;;;3.40;84.20;;;;;;5011860;28;20029;-71
2021/12/04 15:20:41;;;;;;;10.52;4.30;;;3.40;84.30;;;;;;5000710;28;20068;-71
2021/12/04 15:23:13;;;;;;;10.18;4.75;;;3.40;85.30;;;;;;5001151;28;20109;-70
2021/12/04 15:25:40;;;;;;;7.90;4.10;;;3.40;84.80;;;;;;5010510;28;20022;-70
2021/12/04 15:28:18;;;;;;;7.32;4.05;;;3.40;85.30;;;;;;4999357;28;20018;-70
2021/12/04 15:30:47;;;;;;;9.07;4.72;;;3.40;85.40;;;;;;5002039;28;20121;-70
2021/12/04 15:33:24;;;;;;;8.85;4.53;;;3.40;85.50;;;;;;5001746;28;20522;-70
2021/12/04 15:35:51;;;;;;;8.10;4.25;;;3.40;85.40;;;;;;5012935;28;20736;-70
2021/12/04 15:38:34;;;;;;;6.95;4.30;;;3.40;85.70;;;;;;5000756;28;20029;-64
2021/12/04 15:41:19;;;;;;;9.07;4.85;;;3.30;87.80;;;;;;5004747;28;20028;-70
2021/12/04 15:54:15;;;;;;;10.38;5.57;;;3.10;89.60;;;;;;4999346;28;20733;-70
2021/12/04 15:56:48;;;;;;;10.02;4.90;;;3.10;90.00;;;;;;5005874;28;20099;-70
2021/12/04 15:59:19;;;;;;;8.25;4.40;;;3.10;89.50;;;;;;5004568;28;20048;-71
2021/12/04 16:01:46;;;;;;;9.18;4.78;;;3.10;89.80;;;;;;5003385;28;20448;-71
2021/12/04 16:04:18;;;;;;;;;;;3.20;90.20;;;;;;5005298;28;20105;-71
2021/12/04 16:06:44;;;;;;;9.15;5.38;;;3.20;90.10;;;;;;5010140;28;19982;-71
2021/12/04 16:09:11;;;;;;;8.23;4.63;;;3.20;90.30;;;;;;5010992;28;20676;-70
2021/12/04 16:11:39;;;;;;;9.07;5.00;;;3.20;89.80;;;;;;4996574;28;20030;-71
2021/12/04 16:14:06;;;;;;;10.30;6.60;;;3.10;88.80;;;;;;5000032;28;20029;-71
2021/12/04 16:16:33;;;;;;;13.95;10.02;;;3.10;90.00;;;;;;4998571;28;20018;-71
2021/12/04 16:19:00;;;;;;;10.70;6.75;;;3.10;89.90;;;;;;5005400;28;20021;-71
2021/12/04 16:21:27;;;;;;;8.05;5.00;;;3.10;89.70;;;;;;5000348;28;20608;-71
2021/12/04 16:23:54;;;;;;;9.90;5.47;;;3.10;88.50;;;;;;5002459;28;20060;-70
2021/12/04 16:26:27;;;;;;;;;;;3.00;87.90;;;;;;5001989;28;20026;-71
2021/12/04 16:29:07;;;;;;;7.05;4.47;;;3.00;87.90;;;;;;5023230;28;19916;-71
2021/12/04 16:32:13;;;;;;;9.82;4.97;;;3.00;89.00;;;;;;5011173;28;20097;-70
2021/12/04 16:37:36;;;;;;;9.75;4.65;;;3.10;88.80;;;;;;5002039;28;20041;-71